Time;durP1;ratioP1;P1;durP2;ratioP2;P2;SDS_P1;SDS_P2;PMS_P1;PMS_P2;Temp;Humidity;BMP_temperature;BMP_pressure;BME280_temperature;BME280_humidity;BME280_pressure;Samples;Min_cycle;Max_cycle;Signal;HPM_P1;HPM_P2
2020/12/19 00:00:06;;;;;;;24.55;10.65;;;4.50;99.90;;;;;;4994827;28;20429;-75
2020/12/19 00:02:32;;;;;;;24.98;11.20;;;4.50;99.90;;;;;;4995318;28;20022;-75
2020/12/19 00:04:57;;;;;;;26.58;10.95;;;4.60;99.90;;;;;;5000688;28;20111;-74
2020/12/19 00:07:23;;;;;;;22.02;10.15;;;4.60;99.90;;;;;;4998594;28;20044;-74
2020/12/19 00:09:48;;;;;;;22.80;10.77;;;4.50;99.90;;;;;;4999275;28;20100;-74
2020/12/19 00:12:14;;;;;;;23.85;10.57;;;4.50;99.90;;;;;;4996791;28;20033;-74
2020/12/19 00:14:39;;;;;;;23.42;11.07;;;4.50;99.90;;;;;;5002561;28;20064;-74
2020/12/19 00:17:04;;;;;;;22.08;10.43;;;4.50;99.90;;;;;;4998119;28;20382;-75
2020/12/19 00:19:30;;;;;;;23.38;9.75;;;4.40;99.90;;;;;;4999699;28;20481;-76
2020/12/19 00:21:55;;;;;;;26.50;11.15;;;4.40;99.90;;;;;;4999633;28;20018;-76
2020/12/19 00:24:21;;;;;;;25.58;10.40;;;4.40;99.90;;;;;;4993961;28;20065;-75
2020/12/19 00:26:46;;;;;;;27.35;10.35;;;4.40;99.90;;;;;;5000486;28;20034;-76
2020/12/19 00:29:13;;;;;;;22.55;10.70;;;4.40;99.90;;;;;;4999191;28;20149;-76
2020/12/19 00:31:39;;;;;;;23.77;11.73;;;4.40;99.90;;;;;;4999627;28;20040;-75
2020/12/19 00:34:10;;;;;;;25.60;11.13;;;4.40;99.90;;;;;;4997554;28;20095;-76
2020/12/19 00:36:35;;;;;;;22.37;10.67;;;4.30;99.90;;;;;;4999705;28;20481;-76
2020/12/19 00:39:02;;;;;;;21.08;10.82;;;4.30;99.90;;;;;;5001320;28;20030;-76
2020/12/19 00:41:28;;;;;;;25.65;11.60;;;4.30;99.90;;;;;;4999128;28;20042;-76
2020/12/19 00:43:53;;;;;;;20.83;10.23;;;4.30;99.90;;;;;;5000695;28;20609;-75
2020/12/19 00:46:20;;;;;;;22.25;10.35;;;4.30;99.90;;;;;;4999070;28;20515;-75
2020/12/19 00:48:47;;;;;;;24.45;11.32;;;4.30;99.90;;;;;;4999776;28;20065;-76
2020/12/19 00:51:17;;;;;;;23.40;10.45;;;4.30;99.90;;;;;;4996907;28;20026;-76
2020/12/19 00:53:44;;;;;;;23.35;10.32;;;4.30;99.90;;;;;;5001556;28;20034;-75
2020/12/19 00:56:23;;;;;;;24.70;10.27;;;4.20;99.90;;;;;;4998240;28;20049;-75
2020/12/19 00:58:53;;;;;;;23.23;10.93;;;4.20;99.90;;;;;;5000706;28;20481;-75
2020/12/19 01:01:21;;;;;;;19.17;9.98;;;4.20;99.90;;;;;;4995204;28;20069;-75
2020/12/19 01:03:48;;;;;;;19.90;10.20;;;4.10;99.90;;;;;;4997854;28;20042;-76
2020/12/19 01:06:18;;;;;;;22.73;10.65;;;4.20;99.90;;;;;;5000240;28;20030;-75
2020/12/19 01:08:45;;;;;;;20.67;9.70;;;4.10;99.90;;;;;;4998807;28;20027;-76
2020/12/19 01:11:15;;;;;;;24.85;10.48;;;4.20;99.90;;;;;;4999064;28;20119;-75
2020/12/19 01:13:42;;;;;;;26.25;10.23;;;4.20;99.90;;;;;;4997990;28;20061;-75
2020/12/19 01:16:08;;;;;;;20.45;10.00;;;4.20;99.90;;;;;;5001267;28;20037;-76
2020/12/19 01:18:34;;;;;;;24.33;10.63;;;4.20;99.90;;;;;;4998518;28;20610;-75
2020/12/19 01:21:00;;;;;;;21.33;10.15;;;4.20;99.90;;;;;;4998923;28;20053;-75
2020/12/19 01:23:25;;;;;;;22.45;10.75;;;4.30;99.90;;;;;;5001369;28;20103;-75
2020/12/19 01:25:50;;;;;;;25.75;11.00;;;4.30;99.90;;;;;;5005145;28;20476;-76
2020/12/19 01:28:16;;;;;;;22.75;11.18;;;4.30;99.90;;;;;;5003486;28;20046;-76
2020/12/19 01:30:41;;;;;;;21.20;10.75;;;4.30;99.90;;;;;;4997787;28;20036;-75
2020/12/19 01:33:07;;;;;;;20.98;10.10;;;4.30;99.90;;;;;;5002482;28;20077;-75
2020/12/19 01:35:32;;;;;;;22.98;10.60;;;4.40;99.90;;;;;;5002211;28;20019;-76
2020/12/19 01:37:58;;;;;;;20.70;9.90;;;4.30;99.90;;;;;;5003127;28;20108;-76
2020/12/19 01:40:23;;;;;;;19.33;10.20;;;4.30;99.90;;;;;;5003589;28;20572;-75
2020/12/19 01:42:49;;;;;;;21.20;10.43;;;4.20;99.90;;;;;;4998872;28;20030;-76
2020/12/19 01:45:14;;;;;;;22.23;10.05;;;4.20;99.90;;;;;;5001963;28;20108;-75
2020/12/19 01:47:40;;;;;;;25.13;10.48;;;4.20;99.90;;;;;;5001651;28;20014;-75
2020/12/19 01:50:06;;;;;;;21.33;10.48;;;4.20;99.90;;;;;;5002422;28;20030;-76
2020/12/19 01:52:34;;;;;;;21.00;10.32;;;4.20;99.90;;;;;;5001790;28;20436;-75
2020/12/19 01:55:01;;;;;;;21.45;10.75;;;4.20;99.90;;;;;;5005059;28;20117;-76
2020/12/19 01:57:29;;;;;;;22.02;10.60;;;4.20;99.90;;;;;;5000848;28;20038;-76
2020/12/19 01:59:54;;;;;;;21.77;10.20;;;4.20;99.90;;;;;;5003024;28;20029;-76
2020/12/19 02:02:24;;;;;;;22.83;10.00;;;4.20;99.90;;;;;;5001119;28;20377;-76
2020/12/19 02:04:51;;;;;;;24.50;10.43;;;4.10;99.90;;;;;;5001621;28;20116;-75
2020/12/19 02:07:18;;;;;;;23.27;10.75;;;4.20;99.90;;;;;;5000098;28;20042;-75
2020/12/19 02:09:44;;;;;;;24.73;10.07;;;4.10;99.90;;;;;;5006286;28;20022;-76
2020/12/19 02:12:11;;;;;;;22.48;10.27;;;4.10;99.90;;;;;;4999520;28;20069;-76
2020/12/19 02:14:37;;;;;;;20.58;10.10;;;4.00;99.90;;;;;;5005463;28;20053;-76
2020/12/19 02:17:11;;;;;;;22.00;10.35;;;4.10;99.90;;;;;;4998335;28;20042;-75
2020/12/19 02:19:37;;;;;;;20.98;9.90;;;4.10;99.90;;;;;;5004736;28;20084;-76
2020/12/19 02:22:05;;;;;;;22.20;10.35;;;4.10;99.90;;;;;;5001222;28;20089;-76
2020/12/19 02:24:30;;;;;;;21.98;10.38;;;4.10;99.90;;;;;;5005221;28;20053;-75
2020/12/19 02:26:57;;;;;;;21.05;10.68;;;4.00;99.90;;;;;;4998302;28;20087;-75
2020/12/19 02:29:25;;;;;;;22.58;10.63;;;4.00;99.90;;;;;;5003053;28;20033;-76
2020/12/19 02:31:51;;;;;;;22.77;10.13;;;4.00;99.90;;;;;;5000931;28;20036;-76
2020/12/19 02:34:17;;;;;;;22.92;10.63;;;4.00;99.90;;;;;;5001279;28;20037;-76
2020/12/19 02:36:43;;;;;;;23.02;11.20;;;4.10;99.90;;;;;;5000829;28;20046;-75
2020/12/19 02:39:09;;;;;;;23.15;10.55;;;4.00;99.90;;;;;;5001918;28;20120;-75
2020/12/19 02:41:36;;;;;;;24.63;10.75;;;4.00;99.90;;;;;;5000802;28;20172;-75
2020/12/19 02:44:02;;;;;;;24.52;10.15;;;4.00;99.90;;;;;;5002199;28;20029;-75
2020/12/19 02:46:27;;;;;;;22.40;10.50;;;4.00;99.90;;;;;;5000604;28;20022;-76
2020/12/19 02:48:53;;;;;;;24.00;10.57;;;4.00;99.90;;;;;;5002104;28;20033;-75
2020/12/19 02:51:18;;;;;;;19.88;10.23;;;4.00;99.90;;;;;;5002489;28;20109;-75
2020/12/19 02:53:44;;;;;;;26.25;10.27;;;4.00;99.90;;;;;;4995900;28;20729;-75
2020/12/19 02:56:10;;;;;;;22.77;10.63;;;4.00;99.90;;;;;;4999419;28;20084;-75
2020/12/19 02:58:35;;;;;;;20.20;10.20;;;4.00;99.90;;;;;;5000035;28;20093;-75
2020/12/19 03:01:01;;;;;;;24.48;10.77;;;4.00;99.90;;;;;;4997062;28;20080;-75
2020/12/19 03:03:26;;;;;;;23.73;11.32;;;4.00;99.90;;;;;;5001515;28;20060;-75
2020/12/19 03:05:52;;;;;;;18.17;9.90;;;4.00;99.90;;;;;;4999249;28;20112;-75
2020/12/19 03:08:17;;;;;;;21.33;10.02;;;4.00;99.90;;;;;;5003223;28;20122;-75
2020/12/19 03:10:43;;;;;;;21.27;9.95;;;4.00;99.90;;;;;;5004665;28;20029;-76
2020/12/19 03:13:09;;;;;;;19.17;9.25;;;4.10;99.90;;;;;;4999845;28;20503;-75
2020/12/19 03:18:10;;;;;;;23.60;10.57;;;4.00;99.90;;;;;;5884732;22;20055;-74
2020/12/19 03:20:35;;;;;;;21.25;10.55;;;4.00;99.90;;;;;;5049799;28;20029;-74
2020/12/19 03:23:01;;;;;;;21.15;10.43;;;4.00;99.90;;;;;;5054562;28;20044;-74
2020/12/19 03:25:27;;;;;;;22.45;10.35;;;4.00;99.90;;;;;;5053555;28;20036;-74
2020/12/19 03:27:53;;;;;;;18.38;9.32;;;4.00;99.90;;;;;;5054112;28;20024;-75
2020/12/19 03:30:19;;;;;;;23.42;9.98;;;4.00;99.90;;;;;;5053582;28;20033;-74
2020/12/19 03:32:44;;;;;;;18.08;9.18;;;4.10;99.90;;;;;;5053201;28;20047;-74
2020/12/19 03:35:10;;;;;;;19.80;10.07;;;4.10;99.90;;;;;;5053941;28;20068;-74
2020/12/19 03:37:35;;;;;;;19.13;9.68;;;4.00;99.90;;;;;;5054910;28;20078;-74
2020/12/19 03:40:02;;;;;;;19.83;9.95;;;4.00;99.90;;;;;;5055297;28;20048;-74
2020/12/19 03:42:28;;;;;;;22.55;9.98;;;4.00;99.90;;;;;;5054351;28;20016;-74
2020/12/19 03:44:53;;;;;;;22.35;10.05;;;4.00;99.90;;;;;;5054782;28;20028;-74
2020/12/19 03:47:19;;;;;;;20.63;8.52;;;4.00;99.90;;;;;;5055917;28;20035;-75
2020/12/19 03:49:45;;;;;;;19.92;9.52;;;4.00;99.90;;;;;;5055226;28;20025;-75
2020/12/19 03:52:10;;;;;;;25.63;9.93;;;4.00;99.90;;;;;;5053248;28;20029;-75
2020/12/19 03:54:35;;;;;;;19.00;9.57;;;4.00;99.90;;;;;;5054934;28;20025;-75
2020/12/19 03:57:01;;;;;;;24.60;10.00;;;3.90;99.90;;;;;;5054863;28;20040;-74
2020/12/19 03:59:26;;;;;;;20.83;9.55;;;4.00;99.90;;;;;;5054061;28;20101;-75
2020/12/19 04:01:52;;;;;;;17.80;9.15;;;3.90;99.90;;;;;;5053987;28;20025;-75
2020/12/19 04:04:17;;;;;;;19.40;9.27;;;4.00;99.90;;;;;;5055285;28;20032;-74
2020/12/19 04:06:43;;;;;;;17.02;9.32;;;3.90;99.90;;;;;;5055243;28;20020;-75
2020/12/19 04:09:08;;;;;;;19.98;8.88;;;4.00;99.90;;;;;;5054607;28;20029;-74
2020/12/19 04:11:34;;;;;;;17.98;9.55;;;4.00;99.90;;;;;;5054911;28;20414;-75
2020/12/19 04:13:59;;;;;;;19.52;8.82;;;4.00;99.90;;;;;;5053739;28;20478;-75
2020/12/19 04:16:25;;;;;;;17.55;8.70;;;4.00;99.90;;;;;;5053690;28;20146;-75
2020/12/19 04:18:50;;;;;;;18.40;9.27;;;4.00;99.90;;;;;;5053254;28;20037;-75
2020/12/19 04:21:16;;;;;;;18.33;9.07;;;4.00;99.90;;;;;;5055557;28;20025;-75
2020/12/19 04:23:41;;;;;;;19.77;10.18;;;4.00;99.90;;;;;;5054137;28;20457;-74
2020/12/19 04:26:06;;;;;;;23.17;9.93;;;3.90;99.90;;;;;;5055564;28;20028;-75
2020/12/19 04:28:32;;;;;;;21.08;9.45;;;4.00;99.90;;;;;;5054520;28;20429;-75
2020/12/19 04:30:57;;;;;;;18.67;9.43;;;4.00;99.90;;;;;;5054705;28;20056;-75
2020/12/19 04:33:24;;;;;;;20.50;9.90;;;4.00;99.90;;;;;;5053347;28;20016;-75
2020/12/19 04:35:50;;;;;;;18.95;9.43;;;4.00;99.90;;;;;;5054146;28;20062;-75
2020/12/19 04:38:15;;;;;;;16.40;8.50;;;3.90;99.90;;;;;;5054406;28;20040;-75
2020/12/19 04:40:41;;;;;;;20.20;8.90;;;3.90;99.90;;;;;;5049104;28;20026;-75
2020/12/19 04:43:13;;;;;;;18.80;8.90;;;3.90;99.90;;;;;;5053566;28;20064;-75
2020/12/19 04:45:40;;;;;;;18.38;8.80;;;3.80;99.90;;;;;;5053828;28;20040;-75
2020/12/19 04:48:06;;;;;;;23.05;9.98;;;3.80;99.90;;;;;;5055013;28;20032;-75
2020/12/19 04:50:32;;;;;;;20.63;8.90;;;3.90;99.90;;;;;;5051859;28;20040;-75
2020/12/19 04:52:57;;;;;;;19.77;8.75;;;3.80;99.90;;;;;;5054221;28;20032;-74
2020/12/19 04:55:23;;;;;;;18.42;8.27;;;3.80;99.90;;;;;;5052378;28;20060;-74
2020/12/19 04:57:51;;;;;;;14.70;8.55;;;3.60;99.90;;;;;;5053187;28;20174;-74
2020/12/19 05:00:16;;;;;;;20.77;9.10;;;3.60;99.90;;;;;;5052006;28;20041;-74
2020/12/19 05:02:41;;;;;;;19.15;9.50;;;3.60;99.90;;;;;;5053309;28;20044;-75
2020/12/19 05:05:07;;;;;;;20.02;9.65;;;3.70;99.90;;;;;;5053406;28;20021;-75
2020/12/19 05:07:33;;;;;;;20.60;9.93;;;3.70;99.90;;;;;;5053279;28;20474;-75
2020/12/19 05:09:58;;;;;;;24.77;9.52;;;3.80;99.90;;;;;;5053492;28;20092;-74
2020/12/19 05:12:25;;;;;;;19.25;9.18;;;3.80;99.90;;;;;;5052024;28;21408;-74
2020/12/19 05:14:51;;;;;;;18.27;9.43;;;3.70;99.90;;;;;;5054643;28;20032;-74
2020/12/19 05:17:16;;;;;;;23.83;10.40;;;3.70;99.90;;;;;;5052833;28;20051;-75
2020/12/19 05:19:42;;;;;;;23.40;9.88;;;3.60;99.90;;;;;;5054200;28;20095;-75
2020/12/19 05:22:07;;;;;;;20.42;9.40;;;3.60;99.90;;;;;;5053065;28;20032;-74
2020/12/19 05:24:36;;;;;;;20.83;10.77;;;3.50;99.90;;;;;;5051196;28;20474;-74
2020/12/19 05:27:05;;;;;;;21.38;9.98;;;3.50;99.90;;;;;;5053527;28;20032;-74
2020/12/19 05:29:32;;;;;;;20.83;9.63;;;3.40;99.90;;;;;;5053865;28;20070;-74
2020/12/19 05:31:59;;;;;;;21.60;10.40;;;3.40;99.90;;;;;;5053356;28;20025;-75
2020/12/19 05:34:27;;;;;;;22.00;9.85;;;3.40;99.90;;;;;;5053290;28;20033;-75
2020/12/19 05:36:54;;;;;;;23.73;10.73;;;3.40;99.90;;;;;;5051325;28;20490;-75
2020/12/19 05:39:20;;;;;;;21.63;10.43;;;3.30;99.90;;;;;;5053201;28;20109;-75
2020/12/19 05:41:46;;;;;;;21.60;10.30;;;3.30;99.90;;;;;;5050484;28;20037;-74
2020/12/19 05:44:13;;;;;;;23.92;9.55;;;3.30;99.90;;;;;;5054274;28;20394;-75
2020/12/19 05:46:40;;;;;;;26.38;10.57;;;3.30;99.90;;;;;;5053285;28;20025;-75
2020/12/19 05:49:10;;;;;;;23.70;10.52;;;3.20;99.90;;;;;;5053155;28;20111;-75
2020/12/19 05:51:40;;;;;;;25.27;10.57;;;3.20;99.90;;;;;;5052402;28;20028;-75
2020/12/19 05:54:11;;;;;;;22.08;10.25;;;3.20;99.90;;;;;;5051755;28;20051;-75
2020/12/19 05:56:43;;;;;;;23.60;10.30;;;3.10;99.90;;;;;;5051814;28;20078;-75
2020/12/19 05:59:11;;;;;;;22.73;9.93;;;3.00;99.90;;;;;;5051625;28;20095;-75
2020/12/19 06:01:42;;;;;;;23.15;10.43;;;3.00;99.90;;;;;;5051196;28;20053;-74
2020/12/19 06:04:09;;;;;;;23.17;10.60;;;2.90;99.90;;;;;;5050526;28;20111;-75
2020/12/19 06:06:39;;;;;;;21.23;10.50;;;2.90;99.90;;;;;;5053073;28;20035;-75
2020/12/19 06:09:06;;;;;;;21.53;10.47;;;2.90;99.90;;;;;;5054450;28;20040;-75
2020/12/19 06:11:40;;;;;;;24.45;10.23;;;2.90;99.90;;;;;;5056240;28;20024;-74
2020/12/19 06:14:08;;;;;;;21.90;10.25;;;2.90;99.90;;;;;;5055623;28;20063;-74
2020/12/19 06:16:39;;;;;;;19.73;9.98;;;2.90;99.90;;;;;;5057697;28;20051;-74
2020/12/19 06:19:22;;;;;;;21.35;9.10;;;2.90;99.90;;;;;;5056253;28;20048;-74
2020/12/19 06:21:53;;;;;;;22.52;9.02;;;2.90;99.90;;;;;;5057161;28;20502;-75
2020/12/19 06:24:38;;;;;;;23.35;9.90;;;2.90;99.90;;;;;;5056539;28;20033;-74
2020/12/19 06:27:22;;;;;;;23.38;10.05;;;3.00;99.90;;;;;;5054320;28;20387;-74
2020/12/19 06:29:49;;;;;;;20.48;9.45;;;2.90;99.90;;;;;;5056691;28;20032;-74
2020/12/19 06:32:22;;;;;;;21.48;10.45;;;2.70;99.90;;;;;;5056331;28;20039;-74
2020/12/19 06:35:10;;;;;;;22.65;10.00;;;2.70;99.90;;;;;;5056413;28;20544;-74
2020/12/19 06:37:38;;;;;;;22.02;9.60;;;2.60;99.90;;;;;;5056379;28;20032;-74
2020/12/19 06:40:20;;;;;;;20.00;10.38;;;2.60;99.90;;;;;;5056139;28;20036;-74
2020/12/19 06:42:48;;;;;;;21.33;9.75;;;2.70;99.90;;;;;;5056252;28;20510;-74
2020/12/19 06:45:27;;;;;;;25.83;10.90;;;2.80;99.90;;;;;;5056182;28;20025;-74
2020/12/19 06:47:53;;;;;;;24.95;10.02;;;2.80;99.90;;;;;;5056134;28;20385;-75
2020/12/19 06:50:20;;;;;;;22.70;10.13;;;2.80;99.90;;;;;;5055800;28;20016;-74
2020/12/19 06:52:59;;;;;;;21.90;10.50;;;2.80;99.90;;;;;;5058544;28;20016;-74
2020/12/19 06:55:29;;;;;;;26.27;11.38;;;2.80;99.90;;;;;;5056546;28;20045;-74
2020/12/19 06:57:58;;;;;;;22.98;10.55;;;2.70;99.90;;;;;;5057329;28;20032;-74
2020/12/19 07:00:31;;;;;;;23.80;10.27;;;2.90;99.90;;;;;;5055849;28;20840;-74
2020/12/19 07:02:59;;;;;;;21.75;10.68;;;2.80;99.90;;;;;;5056633;28;20021;-75
2020/12/19 07:05:27;;;;;;;31.60;13.40;;;2.80;99.90;;;;;;5054018;28;20048;-74
2020/12/19 07:07:53;;;;;;;27.30;11.00;;;2.80;99.90;;;;;;5056971;28;20052;-74
2020/12/19 07:10:45;;;;;;;23.27;10.40;;;2.90;99.90;;;;;;5056232;28;20028;-75
2020/12/19 07:13:12;;;;;;;24.40;10.73;;;2.80;99.90;;;;;;5053994;28;20045;-74
2020/12/19 07:15:45;;;;;;;24.15;10.55;;;2.90;99.90;;;;;;5054046;28;20063;-75
2020/12/19 07:18:28;;;;;;;22.38;10.25;;;2.90;99.90;;;;;;5055619;28;20080;-75
2020/12/19 07:21:07;;;;;;;26.02;10.90;;;2.90;99.90;;;;;;5053789;28;20036;-74
2020/12/19 07:23:35;;;;;;;26.20;10.68;;;3.00;99.90;;;;;;5055767;28;20032;-74
2020/12/19 07:26:01;;;;;;;23.17;10.48;;;3.00;99.90;;;;;;5056557;28;20020;-74
2020/12/19 07:28:27;;;;;;;25.55;10.82;;;3.10;99.90;;;;;;5055258;28;20025;-74
2020/12/19 07:30:52;;;;;;;22.88;10.18;;;3.20;99.90;;;;;;5054508;28;20028;-74
2020/12/19 07:33:18;;;;;;;27.15;10.90;;;3.20;99.90;;;;;;5054346;28;20028;-74
2020/12/19 07:35:44;;;;;;;25.20;10.88;;;3.20;99.90;;;;;;5054120;28;20020;-75
2020/12/19 07:38:10;;;;;;;24.48;11.32;;;3.20;99.90;;;;;;5056308;28;20052;-75
2020/12/19 07:40:35;;;;;;;26.75;11.48;;;3.20;99.90;;;;;;5053608;28;20020;-75
2020/12/19 07:43:01;;;;;;;23.55;11.07;;;3.20;99.90;;;;;;5056734;28;21234;-75
2020/12/19 07:45:27;;;;;;;22.50;10.82;;;3.30;99.90;;;;;;5054693;28;20537;-75
2020/12/19 07:47:53;;;;;;;24.60;10.80;;;3.30;99.90;;;;;;5055652;28;20124;-75
2020/12/19 07:50:23;;;;;;;23.38;12.40;;;3.30;99.90;;;;;;5052276;28;20017;-75
2020/12/19 07:53:06;;;;;;;21.17;11.13;;;3.40;99.90;;;;;;5053604;28;20108;-75
2020/12/19 07:55:32;;;;;;;23.00;11.52;;;3.40;99.90;;;;;;5051758;28;20024;-76
2020/12/19 07:57:59;;;;;;;21.30;11.05;;;3.40;99.90;;;;;;5053879;28;20031;-76
2020/12/19 08:00:26;;;;;;;24.15;12.35;;;3.40;99.90;;;;;;5050233;28;20185;-77
2020/12/19 08:02:52;;;;;;;23.65;10.52;;;3.50;99.90;;;;;;5053738;28;20524;-80
2020/12/19 08:05:18;;;;;;;26.23;11.23;;;3.50;99.90;;;;;;5053206;28;20025;-79
2020/12/19 08:07:44;;;;;;;24.63;10.63;;;3.50;99.90;;;;;;5055475;28;20028;-79
2020/12/19 08:10:12;;;;;;;22.00;10.75;;;3.60;99.90;;;;;;5052937;28;20763;-76
2020/12/19 08:12:39;;;;;;;18.23;9.65;;;3.60;99.90;;;;;;5054650;28;20121;-76
2020/12/19 08:15:15;;;;;;;18.85;9.80;;;3.70;99.90;;;;;;5054723;28;20035;-76
2020/12/19 08:17:52;;;;;;;23.45;10.70;;;3.70;99.90;;;;;;5053991;28;20522;-77
2020/12/19 08:20:21;;;;;;;20.67;10.02;;;3.80;99.90;;;;;;5052728;28;20044;-80
2020/12/19 08:22:47;;;;;;;22.85;10.68;;;3.90;99.90;;;;;;5053952;28;20032;-79
2020/12/19 08:25:13;;;;;;;19.17;9.63;;;3.80;99.90;;;;;;5051795;28;20074;-77
2020/12/19 08:27:43;;;;;;;17.73;9.93;;;3.90;99.90;;;;;;5053508;28;20157;-76
2020/12/19 08:30:15;;;;;;;21.80;9.88;;;3.90;99.90;;;;;;5052733;28;20032;-76
2020/12/19 08:32:43;;;;;;;18.98;9.95;;;3.90;99.90;;;;;;5051034;28;20021;-77
2020/12/19 08:35:09;;;;;;;20.38;9.90;;;3.90;99.90;;;;;;5050808;28;20056;-76
2020/12/19 08:37:34;;;;;;;20.73;10.55;;;4.00;99.90;;;;;;5052528;28;20471;-76
2020/12/19 08:40:12;;;;;;;19.88;9.32;;;4.10;99.90;;;;;;5051421;28;20051;-78
2020/12/19 08:42:38;;;;;;;19.17;9.65;;;4.10;99.90;;;;;;5052372;28;20079;-78
2020/12/19 08:45:30;;;;;;;18.90;9.88;;;4.10;99.90;;;;;;5051974;28;20031;-77
2020/12/19 08:47:58;;;;;;;18.55;9.70;;;4.20;99.90;;;;;;5049901;28;20112;-77
2020/12/19 08:50:38;;;;;;;28.60;13.63;;;4.20;99.90;;;;;;5050996;28;20021;-76
2020/12/19 08:53:25;;;;;;;21.90;10.18;;;4.30;99.90;;;;;;5052810;28;20044;-76
2020/12/19 08:55:52;;;;;;;21.83;10.23;;;4.30;99.90;;;;;;5051586;28;20040;-77
2020/12/19 08:58:26;;;;;;;21.67;9.80;;;4.40;99.90;;;;;;5050514;28;20521;-79
2020/12/19 09:00:52;;;;;;;19.67;10.15;;;4.40;99.90;;;;;;5048063;28;20482;-78
2020/12/19 09:03:28;;;;;;;21.65;9.88;;;4.50;99.90;;;;;;5052554;28;21131;-77
2020/12/19 09:06:05;;;;;;;17.67;8.98;;;4.50;99.90;;;;;;5049410;28;20044;-76
2020/12/19 09:08:34;;;;;;;18.70;9.63;;;4.60;99.90;;;;;;5053115;28;20033;-76
2020/12/19 09:10:59;;;;;;;17.67;8.88;;;4.60;99.90;;;;;;5053571;28;20029;-75
2020/12/19 09:13:25;;;;;;;18.20;9.52;;;4.70;99.90;;;;;;5051136;28;20025;-77
2020/12/19 09:15:54;;;;;;;18.05;9.07;;;4.80;99.90;;;;;;5046308;28;20032;-81
2020/12/19 09:18:30;;;;;;;21.65;10.13;;;4.80;99.90;;;;;;5052182;28;20170;-77
2020/12/19 09:20:57;;;;;;;19.02;9.57;;;4.90;99.90;;;;;;5052324;28;20025;-78
2020/12/19 09:23:24;;;;;;;19.92;9.32;;;5.00;99.90;;;;;;5050713;28;20028;-75
2020/12/19 09:25:51;;;;;;;15.68;8.75;;;5.10;99.90;;;;;;5050049;28;20028;-85
2020/12/19 09:28:17;;;;;;;17.75;8.48;;;5.00;99.90;;;;;;5054050;28;20479;-82
2020/12/19 09:30:42;;;;;;;17.52;9.15;;;5.20;99.90;;;;;;5051380;28;20036;-79
2020/12/19 09:33:08;;;;;;;16.20;8.40;;;5.20;99.90;;;;;;5047870;28;20897;-76
2020/12/19 09:35:34;;;;;;;15.73;7.57;;;5.30;99.90;;;;;;5048408;28;20491;-80
2020/12/19 09:37:59;;;;;;;16.67;8.15;;;5.30;99.90;;;;;;5051779;28;20163;-75
2020/12/19 09:40:25;;;;;;;17.45;8.55;;;5.30;99.90;;;;;;5048901;28;20040;-88
2020/12/19 09:42:51;;;;;;;17.25;8.77;;;5.40;99.90;;;;;;5050076;28;20078;-75
2020/12/19 09:45:17;;;;;;;17.90;8.85;;;5.50;99.90;;;;;;5056564;28;20118;-74
2020/12/19 09:47:43;;;;;;;18.05;9.00;;;5.60;99.90;;;;;;5055654;28;20070;-78
2020/12/19 09:50:10;;;;;;;14.52;7.97;;;5.70;99.90;;;;;;5054716;28;20035;-77
2020/12/19 09:52:36;;;;;;;17.45;9.13;;;5.80;99.90;;;;;;5057077;28;20127;-78
2020/12/19 09:55:04;;;;;;;15.38;8.18;;;6.00;99.90;;;;;;5057651;28;20119;-79
2020/12/19 09:57:29;;;;;;;18.15;8.05;;;6.10;99.90;;;;;;5057954;28;20154;-79
2020/12/19 09:59:55;;;;;;;16.50;8.50;;;6.20;99.90;;;;;;5055782;28;20274;-78
2020/12/19 10:02:20;;;;;;;15.57;8.23;;;6.40;99.90;;;;;;5056264;28;20032;-78
2020/12/19 10:04:46;;;;;;;17.90;8.25;;;6.40;99.90;;;;;;5058081;28;20181;-79
2020/12/19 10:07:11;;;;;;;19.55;7.95;;;6.50;99.90;;;;;;5055371;28;20044;-78
2020/12/19 10:09:37;;;;;;;13.65;7.97;;;6.60;99.90;;;;;;5056455;28;20025;-78
2020/12/19 10:12:02;;;;;;;16.35;8.13;;;6.60;99.90;;;;;;5056445;28;20041;-78
2020/12/19 10:14:28;;;;;;;13.90;8.00;;;6.70;99.90;;;;;;5057275;28;20112;-78
2020/12/19 10:16:54;;;;;;;14.65;7.60;;;6.70;99.90;;;;;;5055806;28;20529;-77
2020/12/19 10:19:20;;;;;;;16.35;8.18;;;6.70;99.90;;;;;;5057122;28;20044;-77
2020/12/19 10:21:45;;;;;;;14.82;8.20;;;6.70;99.90;;;;;;5056828;28;20024;-77
2020/12/19 10:24:11;;;;;;;12.65;7.13;;;6.80;99.90;;;;;;5057098;28;20036;-74
2020/12/19 10:26:36;;;;;;;14.75;7.28;;;6.80;99.90;;;;;;5056365;28;20039;-76
2020/12/19 10:29:01;;;;;;;15.43;8.15;;;6.90;99.90;;;;;;5055821;28;20112;-76
2020/12/19 10:34:53;;;;;;;15.35;7.95;;;7.00;99.90;;;;;;5044792;28;20094;-76
2020/12/19 10:37:18;;;;;;;13.93;7.38;;;7.00;99.90;;;;;;5054719;28;20029;-76
2020/12/19 10:39:44;;;;;;;15.90;8.55;;;7.10;99.90;;;;;;5055645;28;20117;-76
2020/12/19 10:42:09;;;;;;;13.52;7.05;;;7.30;99.90;;;;;;5053476;28;20036;-76
2020/12/19 10:44:34;;;;;;;13.05;7.03;;;7.30;99.90;;;;;;5052891;28;20070;-76
2020/12/19 10:47:00;;;;;;;11.65;6.72;;;7.50;99.90;;;;;;5055205;28;20036;-74
2020/12/19 10:49:28;;;;;;;12.88;7.22;;;7.60;99.90;;;;;;5056842;28;20020;-75
2020/12/19 10:51:54;;;;;;;14.80;7.47;;;7.70;99.90;;;;;;5055034;28;20020;-78
2020/12/19 10:54:19;;;;;;;15.93;7.90;;;7.70;99.90;;;;;;5054576;28;20103;-77
2020/12/19 10:56:45;;;;;;;16.25;8.73;;;7.70;99.90;;;;;;5056147;28;20025;-78
2020/12/19 10:59:10;;;;;;;15.02;7.65;;;7.70;99.90;;;;;;5054143;28;20024;-75
2020/12/19 11:01:36;;;;;;;21.13;10.57;;;7.80;99.90;;;;;;5056509;28;20017;-74
2020/12/19 11:04:01;;;;;;;13.40;7.00;;;7.90;99.90;;;;;;5054888;28;20438;-74
2020/12/19 11:06:27;;;;;;;16.08;7.68;;;8.10;99.90;;;;;;5056017;28;20025;-74
2020/12/19 11:08:54;;;;;;;12.65;7.18;;;8.30;99.90;;;;;;5055030;28;20111;-75
2020/12/19 11:11:20;;;;;;;15.15;7.47;;;8.40;99.90;;;;;;5051279;28;20581;-75
2020/12/19 11:13:47;;;;;;;14.70;7.90;;;8.50;99.90;;;;;;5050187;28;20394;-74
2020/12/19 11:16:20;;;;;;;18.17;7.70;;;8.70;99.90;;;;;;5053312;28;20502;-76
2020/12/19 11:18:46;;;;;;;18.25;7.75;;;8.90;99.90;;;;;;5055750;28;20410;-78
2020/12/19 11:21:11;;;;;;;11.13;6.30;;;9.00;99.90;;;;;;5055759;28;20082;-76
2020/12/19 11:23:39;;;;;;;14.38;6.72;;;9.10;99.90;;;;;;5052574;28;20446;-78
2020/12/19 11:27:07;;;;;;;14.98;7.18;;;9.20;99.70;;;;;;5054051;28;20053;-76
2020/12/19 11:29:31;;;;;;;11.55;6.78;;;9.20;98.80;;;;;;5042692;28;20025;-76
2020/12/19 11:32:02;;;;;;;12.10;6.78;;;9.00;99.20;;;;;;5053355;28;20177;-77
2020/12/19 11:34:27;;;;;;;13.85;6.97;;;8.80;99.70;;;;;;5054148;28;20052;-76
2020/12/19 11:36:53;;;;;;;12.75;6.82;;;8.60;99.90;;;;;;5055557;28;20205;-77
2020/12/19 11:39:18;;;;;;;13.80;7.28;;;8.70;99.90;;;;;;5055539;28;20036;-76
2020/12/19 11:41:44;;;;;;;16.23;8.18;;;8.70;99.90;;;;;;5054730;28;20040;-76
2020/12/19 11:44:11;;;;;;;14.45;7.78;;;8.60;99.90;;;;;;5055157;28;20765;-77
2020/12/19 11:46:37;;;;;;;13.55;7.30;;;8.40;99.90;;;;;;5054359;28;20411;-76
2020/12/19 11:49:02;;;;;;;13.55;7.32;;;8.40;99.90;;;;;;5055630;28;20021;-77
2020/12/19 11:51:30;;;;;;;13.27;7.18;;;8.60;99.90;;;;;;5055220;28;20485;-74
2020/12/19 11:53:56;;;;;;;12.07;7.18;;;8.70;99.90;;;;;;5054200;28;20033;-77
2020/12/19 11:56:22;;;;;;;11.38;7.20;;;8.80;99.90;;;;;;5055165;28;20483;-76
2020/12/19 11:58:47;;;;;;;14.55;7.50;;;8.90;99.90;;;;;;5054132;28;20049;-76
2020/12/19 12:01:13;;;;;;;13.60;6.85;;;9.00;99.90;;;;;;5053310;28;20048;-76
2020/12/19 12:03:38;;;;;;;14.02;7.13;;;9.10;99.90;;;;;;5052531;28;20016;-77
2020/12/19 12:06:04;;;;;;;13.25;7.80;;;9.20;99.90;;;;;;5052699;28;20356;-76
2020/12/19 12:08:29;;;;;;;13.65;7.03;;;9.20;99.70;;;;;;5050719;28;20032;-76
2020/12/19 12:10:55;;;;;;;12.85;7.05;;;9.00;99.90;;;;;;5047993;28;20131;-76
2020/12/19 12:13:20;;;;;;;12.10;7.13;;;8.90;99.90;;;;;;5047303;28;20040;-77
2020/12/19 12:15:46;;;;;;;12.95;7.13;;;8.80;99.90;;;;;;5051546;28;20514;-76
2020/12/19 12:18:11;;;;;;;13.10;6.90;;;8.80;99.90;;;;;;5056387;28;20040;-76
2020/12/19 12:20:37;;;;;;;13.55;7.43;;;9.20;99.90;;;;;;5054008;28;20040;-76
2020/12/19 12:23:02;;;;;;;12.13;6.75;;;9.60;99.20;;;;;;5055429;28;20434;-77
2020/12/19 12:25:27;;;;;;;13.15;6.97;;;10.00;97.90;;;;;;5054990;28;20035;-76
2020/12/19 12:27:53;;;;;;;10.02;5.95;;;10.30;96.60;;;;;;5054778;28;20243;-77
2020/12/19 12:30:18;;;;;;;14.90;7.43;;;10.60;95.30;;;;;;5054575;28;20032;-77
2020/12/19 12:32:44;;;;;;;11.52;7.05;;;10.80;94.50;;;;;;5054849;28;20115;-76
2020/12/19 12:35:10;;;;;;;11.60;6.90;;;10.80;93.90;;;;;;5051389;28;20082;-76
2020/12/19 12:37:35;;;;;;;11.93;7.15;;;10.70;93.80;;;;;;5054256;28;20394;-77
2020/12/19 12:40:02;;;;;;;9.50;6.28;;;10.60;93.80;;;;;;5055608;28;20163;-76
2020/12/19 12:42:27;;;;;;;13.02;6.95;;;10.40;94.20;;;;;;5054481;28;20507;-75
2020/12/19 12:44:53;;;;;;;11.63;6.85;;;10.10;95.10;;;;;;5050073;28;20274;-78
2020/12/19 12:47:21;;;;;;;13.38;7.72;;;9.80;95.90;;;;;;5051928;28;20048;-78
2020/12/19 12:49:47;;;;;;;15.63;7.57;;;9.50;97.00;;;;;;5053030;28;21172;-79